Time;durP1;ratioP1;P1;durP2;ratioP2;P2;SDS_P1;SDS_P2;PMS_P1;PMS_P2;Temp;Humidity;BMP_temperature;BMP_pressure;BME280_temperature;BME280_humidity;BME280_pressure;Samples;Min_cycle;Max_cycle;Signal;HPM_P1;HPM_P2
2021/12/31 00:01:19;;;;;;;0.28;0.10;;;25.30;99.90;;;;;;5015482;28;20515;-70
2021/12/31 00:03:48;;;;;;;3.45;0.20;;;25.30;99.90;;;;;;5012259;28;20030;-69
2021/12/31 00:06:16;;;;;;;0.95;0.30;;;25.10;99.90;;;;;;5006521;28;20026;-70
2021/12/31 00:08:44;;;;;;;0.65;0.13;;;25.20;99.90;;;;;;5004937;28;20034;-76
2021/12/31 00:11:11;;;;;;;0.85;0.15;;;25.40;99.90;;;;;;5006164;28;20065;-75
2021/12/31 00:13:39;;;;;;;0.93;0.20;;;25.60;99.90;;;;;;5006835;28;20434;-72
2021/12/31 00:16:07;;;;;;;0.43;0.10;;;25.70;99.90;;;;;;5002773;28;20048;-70
2021/12/31 00:18:34;;;;;;;0.63;0.15;;;25.70;99.90;;;;;;5005401;28;20041;-73
2021/12/31 00:21:03;;;;;;;1.02;0.40;;;25.50;99.90;;;;;;5006532;28;20545;-76
2021/12/31 00:23:31;;;;;;;1.75;0.40;;;25.50;99.60;;;;;;5005577;28;20019;-71
2021/12/31 00:25:58;;;;;;;0.77;0.10;;;25.50;99.80;;;;;;5011969;28;20053;-71
2021/12/31 00:28:26;;;;;;;0.82;0.15;;;25.20;99.90;;;;;;5015584;28;20022;-75
2021/12/31 00:30:55;;;;;;;0.95;0.22;;;25.00;99.90;;;;;;5016050;28;20053;-76
2021/12/31 00:33:24;;;;;;;1.67;0.57;;;25.20;99.90;;;;;;5009414;28;20022;-74
2021/12/31 00:35:52;;;;;;;1.38;0.30;;;25.20;99.90;;;;;;5003468;28;20026;-75
2021/12/31 00:38:20;;;;;;;1.27;0.20;;;25.30;99.90;;;;;;5004642;28;20025;-73
2021/12/31 00:40:48;;;;;;;0.30;0.10;;;25.60;99.90;;;;;;5001884;28;20105;-76
2021/12/31 00:43:16;;;;;;;0.50;0.20;;;25.80;99.20;;;;;;5004526;28;20030;-73
2021/12/31 00:45:44;;;;;;;0.20;0.10;;;26.10;99.90;;;;;;4983820;28;20081;-74
2021/12/31 00:48:13;;;;;;;0.55;0.17;;;26.30;99.90;;;;;;4975018;28;20460;-72
2021/12/31 00:50:41;;;;;;;3.95;0.43;;;26.40;99.90;;;;;;4976026;28;20113;-75
2021/12/31 00:53:10;;;;;;;0.47;0.20;;;26.20;99.90;;;;;;4990003;28;20030;-72
2021/12/31 00:55:38;;;;;;;1.23;0.40;;;26.30;99.90;;;;;;5004801;28;20436;-70
2021/12/31 00:58:07;;;;;;;2.15;0.20;;;26.50;99.30;;;;;;5004179;28;20483;-71
2021/12/31 01:00:35;;;;;;;0.35;0.20;;;26.60;99.10;;;;;;5004966;28;20474;-75
2021/12/31 01:03:03;;;;;;;0.73;0.20;;;26.90;99.90;;;;;;5005552;28;20093;-73
2021/12/31 01:05:31;;;;;;;0.30;0.10;;;27.00;99.40;;;;;;4999981;28;20680;-76
2021/12/31 01:07:59;;;;;;;0.05;0.05;;;26.70;98.50;;;;;;4996768;28;20092;-74
2021/12/31 01:10:28;;;;;;;1.00;0.10;;;26.60;99.80;;;;;;4992988;28;20117;-70
2021/12/31 01:12:55;;;;;;;0.10;0.10;;;26.40;98.00;;;;;;4991309;28;20460;-72
2021/12/31 01:15:36;;;;;;;2.63;0.20;;;26.30;99.40;;;;;;4993337;28;20022;-71
2021/12/31 01:18:18;;;;;;;1.65;0.25;;;26.60;99.30;;;;;;4992995;28;20054;-76
2021/12/31 01:20:46;;;;;;;1.10;0.25;;;26.60;98.70;;;;;;4992246;28;20037;-72
2021/12/31 01:23:16;;;;;;;0.13;0.08;;;26.80;99.90;;;;;;4980914;28;20022;-75
2021/12/31 01:25:45;;;;;;;1.58;0.10;;;26.90;99.30;;;;;;4993362;28;20069;-76
2021/12/31 01:28:13;;;;;;;0.63;0.10;;;27.10;99.70;;;;;;4996479;28;20058;-76
2021/12/31 01:30:41;;;;;;;0.75;0.15;;;26.90;96.70;;;;;;4995838;28;20101;-75
2021/12/31 01:33:09;;;;;;;0.30;0.28;;;26.70;97.40;;;;;;4994478;28;20018;-74
2021/12/31 01:35:36;;;;;;;0.40;0.17;;;26.70;97.00;;;;;;4993853;28;20379;-76
2021/12/31 01:38:04;;;;;;;0.73;0.30;;;26.60;98.40;;;;;;4993821;28;20026;-76
2021/12/31 01:40:32;;;;;;;1.13;0.35;;;26.80;97.60;;;;;;4993963;28;20038;-78
2021/12/31 01:42:59;;;;;;;1.48;0.20;;;26.70;98.10;;;;;;4991227;28;20026;-76
2021/12/31 01:45:31;;;;;;;0.43;0.10;;;26.70;97.90;;;;;;4994115;28;20022;-78
2021/12/31 01:48:08;;;;;;;1.08;0.20;;;26.80;98.20;;;;;;4990154;28;20398;-75
2021/12/31 01:50:37;;;;;;;0.70;0.35;;;26.90;99.60;;;;;;4994271;28;20023;-77
2021/12/31 01:53:05;;;;;;;3.25;0.30;;;27.20;99.70;;;;;;4994388;28;20361;-76
2021/12/31 01:55:34;;;;;;;1.45;0.20;;;27.40;99.90;;;;;;4978464;28;20033;-76
2021/12/31 01:58:04;;;;;;;2.50;0.30;;;27.80;99.90;;;;;;4990060;28;20023;-75
2021/12/31 02:00:32;;;;;;;0.20;0.10;;;27.80;98.20;;;;;;4982166;28;20076;-74
2021/12/31 02:03:01;;;;;;;0.45;0.22;;;27.80;97.60;;;;;;4993832;28;20467;-73
2021/12/31 02:05:29;;;;;;;1.92;0.17;;;27.90;98.50;;;;;;4989817;28;20117;-74
2021/12/31 02:07:58;;;;;;;1.92;0.30;;;28.00;97.90;;;;;;5006218;28;20026;-75
2021/12/31 02:10:27;;;;;;;0.32;0.13;;;28.20;99.00;;;;;;4993835;28;20022;-72
2021/12/31 02:12:55;;;;;;;0.85;0.22;;;28.00;99.10;;;;;;4991929;28;20014;-74
2021/12/31 02:15:22;;;;;;;2.17;0.30;;;27.90;99.60;;;;;;4993873;28;20062;-74
2021/12/31 02:17:50;;;;;;;0.57;0.30;;;27.80;99.90;;;;;;4991291;28;20514;-75
2021/12/31 02:20:19;;;;;;;3.20;0.20;;;27.90;99.50;;;;;;4993626;28;20085;-73
2021/12/31 02:23:04;;;;;;;2.03;0.40;;;28.00;99.90;;;;;;4991736;28;20048;-74
2021/12/31 02:25:33;;;;;;;2.63;0.40;;;27.90;98.00;;;;;;4990675;28;20106;-72
2021/12/31 02:28:00;;;;;;;2.22;0.40;;;27.80;97.80;;;;;;4992300;28;20034;-74
2021/12/31 02:30:29;;;;;;;0.50;0.20;;;27.70;99.90;;;;;;4991947;28;20534;-70
2021/12/31 02:32:57;;;;;;;2.30;0.43;;;27.90;99.40;;;;;;4991709;28;20018;-69
2021/12/31 02:35:25;;;;;;;1.13;0.20;;;28.20;98.50;;;;;;4992681;28;20088;-72
2021/12/31 02:37:53;;;;;;;0.55;0.20;;;28.00;97.30;;;;;;4992594;28;20018;-75
2021/12/31 02:40:23;;;;;;;1.33;0.70;;;27.90;98.90;;;;;;4992673;28;20034;-71
2021/12/31 02:42:51;;;;;;;2.47;0.47;;;28.00;98.10;;;;;;4991952;28;20022;-74
2021/12/31 02:45:21;;;;;;;2.17;0.30;;;27.80;98.30;;;;;;4992633;28;20037;-75
2021/12/31 02:47:49;;;;;;;0.50;0.22;;;27.90;99.30;;;;;;4991937;28;20489;-69
2021/12/31 02:50:18;;;;;;;1.95;0.60;;;28.20;99.90;;;;;;4990815;28;20022;-69
2021/12/31 02:52:47;;;;;;;1.65;0.28;;;28.40;98.90;;;;;;4992559;28;20468;-69
2021/12/31 02:55:17;;;;;;;1.17;0.45;;;28.40;99.40;;;;;;4992416;28;20027;-69
2021/12/31 02:57:46;;;;;;;1.60;0.35;;;28.60;98.90;;;;;;4991087;28;20046;-69
2021/12/31 03:00:14;;;;;;;0.75;0.30;;;28.70;97.70;;;;;;4992931;28;20062;-69
2021/12/31 03:02:43;;;;;;;1.52;0.22;;;28.30;98.90;;;;;;4991298;28;20018;-69
2021/12/31 03:05:11;;;;;;;0.90;0.40;;;28.30;98.80;;;;;;4988999;28;20022;-69
2021/12/31 03:07:40;;;;;;;1.20;0.30;;;28.50;99.70;;;;;;4991782;28;20023;-70
2021/12/31 03:10:10;;;;;;;1.35;0.28;;;28.50;99.70;;;;;;4993043;28;20023;-70
2021/12/31 03:12:42;;;;;;;1.65;0.20;;;28.60;99.90;;;;;;4991210;28;20037;-69
2021/12/31 03:15:11;;;;;;;0.98;0.20;;;28.60;98.90;;;;;;4989362;28;20122;-70
2021/12/31 03:17:41;;;;;;;2.55;0.40;;;28.60;99.80;;;;;;4991102;28;20028;-73
2021/12/31 03:20:16;;;;;;;0.68;0.15;;;28.60;99.80;;;;;;4989993;28;20042;-72
2021/12/31 03:22:44;;;;;;;2.35;0.47;;;28.60;98.50;;;;;;4991093;28;20026;-72
2021/12/31 03:25:12;;;;;;;2.42;0.50;;;27.90;98.80;;;;;;4993071;28;20026;-70
2021/12/31 03:27:40;;;;;;;1.25;0.30;;;27.70;99.20;;;;;;4992252;28;20042;-72
2021/12/31 03:30:10;;;;;;;3.65;0.30;;;27.40;99.90;;;;;;4993162;28;20030;-73
2021/12/31 03:32:38;;;;;;;1.42;0.55;;;27.70;99.90;;;;;;4992325;28;20038;-69
2021/12/31 03:35:06;;;;;;;0.65;0.28;;;27.80;99.90;;;;;;4992445;28;20060;-69
2021/12/31 03:37:34;;;;;;;0.95;0.25;;;27.90;99.20;;;;;;4994530;28;20029;-69
2021/12/31 03:40:02;;;;;;;1.48;0.30;;;27.40;99.90;;;;;;4996928;28;20037;-71
2021/12/31 03:42:31;;;;;;;2.83;0.32;;;27.00;99.90;;;;;;4994244;28;20030;-70
2021/12/31 03:44:58;;;;;;;4.45;0.80;;;26.80;99.80;;;;;;4996232;28;20023;-69
2021/12/31 03:47:26;;;;;;;1.48;0.20;;;26.90;99.90;;;;;;4995735;28;20011;-70
2021/12/31 03:49:54;;;;;;;2.58;0.40;;;27.40;99.90;;;;;;4995118;28;20090;-70
2021/12/31 03:52:21;;;;;;;1.33;0.20;;;27.70;99.90;;;;;;5003131;28;20037;-69
2021/12/31 03:54:49;;;;;;;3.53;0.20;;;27.60;99.90;;;;;;5004351;28;20460;-69
2021/12/31 03:57:17;;;;;;;0.77;0.30;;;27.50;99.80;;;;;;5002686;28;20021;-71
2021/12/31 03:59:44;;;;;;;2.15;0.30;;;27.40;99.90;;;;;;5005154;28;20042;-71
2021/12/31 04:02:12;;;;;;;3.47;0.93;;;27.50;99.90;;;;;;5005236;28;20015;-69
2021/12/31 04:04:40;;;;;;;1.45;0.40;;;27.10;99.90;;;;;;4996360;28;20023;-68
2021/12/31 04:07:07;;;;;;;6.18;0.50;;;27.10;99.90;;;;;;4995832;28;20021;-68
2021/12/31 04:09:35;;;;;;;2.83;0.30;;;27.10;99.90;;;;;;4995868;28;20010;-72
2021/12/31 04:12:03;;;;;;;1.23;0.32;;;26.70;99.90;;;;;;4996154;28;20018;-72
2021/12/31 04:14:30;;;;;;;1.08;0.30;;;27.00;99.90;;;;;;4992297;28;20030;-72
2021/12/31 04:16:58;;;;;;;3.33;0.30;;;26.90;99.90;;;;;;4994683;28;20061;-72
2021/12/31 04:19:26;;;;;;;4.95;0.88;;;27.00;99.90;;;;;;4993997;28;20539;-71
2021/12/31 04:21:53;;;;;;;1.25;0.40;;;27.20;99.90;;;;;;4994078;28;20034;-72
2021/12/31 04:24:52;;;;;;;3.15;0.40;;;26.70;99.90;;;;;;4994236;28;20014;-73
2021/12/31 04:27:18;;;;;;;1.33;0.30;;;26.40;99.90;;;;;;4992168;28;20495;-68
2021/12/31 04:29:51;;;;;;;3.17;0.40;;;26.40;99.90;;;;;;4993863;28;20018;-71
2021/12/31 04:32:21;;;;;;;1.95;0.55;;;26.60;99.90;;;;;;4993932;28;20046;-71
2021/12/31 04:34:49;;;;;;;2.72;0.40;;;26.50;99.90;;;;;;4993708;28;20042;-68
2021/12/31 04:37:17;;;;;;;2.58;0.30;;;26.50;99.90;;;;;;4993786;28;20022;-69
2021/12/31 04:39:45;;;;;;;2.28;0.35;;;26.40;99.90;;;;;;4994090;28;20502;-69
2021/12/31 04:42:12;;;;;;;6.85;0.82;;;26.60;99.90;;;;;;4994136;28;20021;-69
2021/12/31 04:44:40;;;;;;;3.60;0.50;;;26.60;99.90;;;;;;4995744;28;20030;-72
2021/12/31 04:47:08;;;;;;;4.57;0.95;;;26.50;99.90;;;;;;4995435;28;20021;-71
2021/12/31 04:49:36;;;;;;;1.17;0.43;;;26.80;99.90;;;;;;4995603;28;20018;-69
2021/12/31 04:52:04;;;;;;;5.20;0.75;;;27.10;99.90;;;;;;4995447;28;20022;-73
2021/12/31 04:54:31;;;;;;;3.42;0.45;;;27.30;99.90;;;;;;4993170;28;20014;-70
2021/12/31 04:56:59;;;;;;;4.32;0.80;;;27.30;99.90;;;;;;4995525;28;20023;-70
2021/12/31 04:59:27;;;;;;;1.33;0.20;;;27.10;99.90;;;;;;4995324;28;20046;-71
2021/12/31 05:01:55;;;;;;;3.95;0.63;;;27.20;99.90;;;;;;4995755;28;20367;-72
2021/12/31 05:04:23;;;;;;;0.60;0.25;;;27.30;99.90;;;;;;4995127;28;20050;-71
2021/12/31 05:06:51;;;;;;;1.83;0.50;;;27.20;99.90;;;;;;4992778;28;20042;-69
2021/12/31 05:09:19;;;;;;;4.38;0.63;;;27.10;99.90;;;;;;4995390;28;20096;-69
2021/12/31 05:11:47;;;;;;;2.50;0.30;;;26.80;99.90;;;;;;4994986;28;20434;-69
2021/12/31 05:14:15;;;;;;;5.85;0.90;;;26.80;99.90;;;;;;4995009;28;20018;-70
2021/12/31 05:16:43;;;;;;;4.65;0.60;;;26.70;99.90;;;;;;4995042;28;20033;-69
2021/12/31 05:19:10;;;;;;;3.20;0.70;;;26.70;99.90;;;;;;4992481;28;20552;-73
2021/12/31 05:21:38;;;;;;;6.78;0.60;;;26.80;99.90;;;;;;4994969;28;20045;-70
2021/12/31 05:24:06;;;;;;;3.70;0.40;;;26.50;99.90;;;;;;4994811;28;20375;-70
2021/12/31 05:26:33;;;;;;;5.13;0.47;;;26.00;99.90;;;;;;4994602;28;20042;-70
2021/12/31 05:29:02;;;;;;;2.55;0.50;;;25.90;99.90;;;;;;4994867;28;20399;-70
2021/12/31 05:31:30;;;;;;;2.60;0.90;;;25.90;99.90;;;;;;4991863;28;20117;-70
2021/12/31 05:33:58;;;;;;;5.63;0.60;;;26.10;99.90;;;;;;4994658;28;20038;-71
2021/12/31 05:36:26;;;;;;;2.05;0.57;;;26.20;99.90;;;;;;4994274;28;20073;-71
2021/12/31 05:38:53;;;;;;;4.82;1.02;;;26.20;99.90;;;;;;4994641;28;20014;-70
2021/12/31 05:41:21;;;;;;;1.85;0.35;;;26.40;99.90;;;;;;4997444;28;20045;-70
2021/12/31 05:43:49;;;;;;;4.30;0.77;;;26.30;99.90;;;;;;4998947;28;20022;-69
2021/12/31 05:46:17;;;;;;;2.53;0.40;;;26.30;99.90;;;;;;5003241;28;20505;-73
2021/12/31 05:48:44;;;;;;;2.83;0.50;;;26.10;99.90;;;;;;5005075;28;20061;-70
2021/12/31 05:51:12;;;;;;;2.42;0.50;;;26.00;99.90;;;;;;5004515;28;20023;-70
2021/12/31 05:53:39;;;;;;;2.47;0.47;;;26.10;99.90;;;;;;5002148;28;20464;-70
2021/12/31 05:56:07;;;;;;;5.93;0.85;;;26.30;99.90;;;;;;5003577;28;20133;-72
2021/12/31 05:58:35;;;;;;;3.05;0.77;;;26.10;99.90;;;;;;5003840;28;20137;-70
2021/12/31 06:01:02;;;;;;;3.60;0.88;;;25.90;99.90;;;;;;5010798;28;20057;-75
2021/12/31 06:03:30;;;;;;;5.60;0.57;;;25.70;99.90;;;;;;4997675;28;20512;-72
2021/12/31 06:05:59;;;;;;;5.55;0.70;;;25.70;99.90;;;;;;4993892;28;20066;-71
2021/12/31 06:08:26;;;;;;;2.00;0.50;;;25.40;99.90;;;;;;4993116;28;20028;-74
2021/12/31 06:10:54;;;;;;;2.53;0.60;;;25.10;99.90;;;;;;4994556;28;20030;-70
2021/12/31 06:13:22;;;;;;;4.63;1.00;;;25.10;99.90;;;;;;4994478;28;20026;-71
2021/12/31 06:15:57;;;;;;;1.98;0.95;;;25.00;99.90;;;;;;4994538;28;20430;-71
2021/12/31 06:18:26;;;;;;;6.65;1.30;;;25.00;99.90;;;;;;4993837;28;20022;-71
2021/12/31 06:20:54;;;;;;;3.10;0.63;;;25.00;99.90;;;;;;4993878;28;20042;-72
2021/12/31 06:23:22;;;;;;;2.40;0.60;;;24.90;99.90;;;;;;4993322;28;20018;-73
2021/12/31 06:25:50;;;;;;;1.75;0.45;;;24.90;99.90;;;;;;4992950;28;20125;-69
2021/12/31 06:28:17;;;;;;;6.22;1.00;;;25.00;99.90;;;;;;4994232;28;20467;-73
2021/12/31 06:30:45;;;;;;;4.13;0.70;;;25.00;99.90;;;;;;4994377;28;20079;-72
2021/12/31 06:33:13;;;;;;;3.67;1.25;;;25.20;99.90;;;;;;4994203;28;20023;-70
2021/12/31 06:35:40;;;;;;;4.13;1.00;;;25.20;99.90;;;;;;4994206;28;20018;-72
2021/12/31 06:38:08;;;;;;;4.78;1.17;;;25.20;99.90;;;;;;4994891;28;20130;-69
2021/12/31 06:40:36;;;;;;;3.58;0.60;;;25.20;99.90;;;;;;4994121;28;20049;-74
2021/12/31 06:43:04;;;;;;;4.70;1.20;;;25.20;99.90;;;;;;4993629;28;20425;-71
2021/12/31 06:45:32;;;;;;;3.90;0.35;;;25.40;99.90;;;;;;4992765;28;20104;-69
2021/12/31 06:47:59;;;;;;;2.78;0.40;;;25.50;99.90;;;;;;4993664;28;20030;-69
2021/12/31 06:50:27;;;;;;;4.38;0.95;;;26.00;99.90;;;;;;4993928;28;20019;-71
2021/12/31 06:52:54;;;;;;;4.45;0.60;;;26.40;99.90;;;;;;4993468;28;20038;-70
2021/12/31 06:55:22;;;;;;;4.10;0.68;;;26.00;99.90;;;;;;4993629;28;20018;-76
2021/12/31 06:57:50;;;;;;;3.72;0.88;;;26.00;99.90;;;;;;4993997;28;20054;-70
2021/12/31 07:00:18;;;;;;;6.25;0.80;;;26.10;99.90;;;;;;4993603;28;20031;-73
2021/12/31 07:02:46;;;;;;;4.30;0.70;;;26.10;99.90;;;;;;4993988;28;20049;-73
2021/12/31 07:05:13;;;;;;;2.72;0.60;;;26.30;99.90;;;;;;4993793;28;20033;-72
2021/12/31 07:07:41;;;;;;;2.63;0.45;;;26.20;99.90;;;;;;4992766;28;20113;-69
2021/12/31 07:10:09;;;;;;;3.53;0.80;;;25.60;99.90;;;;;;4993847;28;20034;-70
2021/12/31 07:12:36;;;;;;;4.13;1.00;;;25.50;99.90;;;;;;4993840;28;20345;-71
2021/12/31 07:15:04;;;;;;;8.07;0.88;;;25.30;99.90;;;;;;4992701;28;20146;-77
2021/12/31 07:17:32;;;;;;;3.58;0.90;;;25.30;99.90;;;;;;4994063;28;20479;-73
2021/12/31 07:20:00;;;;;;;4.78;0.90;;;25.20;99.90;;;;;;4993132;28;20035;-69
2021/12/31 07:22:27;;;;;;;4.13;1.35;;;25.20;99.90;;;;;;4993305;28;20025;-70
2021/12/31 07:24:55;;;;;;;3.03;0.40;;;25.10;99.90;;;;;;4993824;28;20105;-70
2021/12/31 07:27:23;;;;;;;2.58;0.60;;;24.90;99.90;;;;;;4993581;28;20057;-69
2021/12/31 07:29:50;;;;;;;4.45;0.70;;;24.90;99.90;;;;;;4993759;28;20033;-69
2021/12/31 07:32:18;;;;;;;3.03;0.77;;;24.90;99.90;;;;;;4991615;28;20048;-70
2021/12/31 07:34:46;;;;;;;2.58;0.50;;;24.80;99.90;;;;;;4993586;28;20027;-72
2021/12/31 07:37:13;;;;;;;5.20;1.00;;;24.70;99.90;;;;;;4997206;28;20085;-76
2021/12/31 07:39:47;;;;;;;4.03;0.85;;;24.60;99.90;;;;;;5003472;28;20026;-73
2021/12/31 07:42:14;;;;;;;3.08;0.80;;;24.90;99.90;;;;;;4996961;28;20030;-72
2021/12/31 07:44:42;;;;;;;0.98;0.38;;;25.60;99.90;;;;;;4996835;28;20011;-73
2021/12/31 07:47:10;;;;;;;2.15;0.55;;;25.90;99.90;;;;;;4996503;28;20030;-70
2021/12/31 07:49:37;;;;;;;4.88;1.15;;;26.20;99.90;;;;;;4994197;28;20018;-70
2021/12/31 07:52:05;;;;;;;1.83;0.55;;;26.50;99.90;;;;;;4997028;28;20093;-70
2021/12/31 07:54:33;;;;;;;3.92;0.77;;;26.60;99.90;;;;;;4997290;28;20165;-71
2021/12/31 07:57:01;;;;;;;5.45;0.85;;;26.50;99.90;;;;;;4997166;28;20022;-70
2021/12/31 07:59:28;;;;;;;5.05;0.80;;;25.50;99.90;;;;;;4990395;28;20375;-75
2021/12/31 08:01:56;;;;;;;7.22;0.95;;;24.90;99.90;;;;;;4991602;28;20391;-73
2021/12/31 08:04:24;;;;;;;4.53;0.47;;;24.40;99.90;;;;;;4994030;28;20026;-69
2021/12/31 08:06:51;;;;;;;3.80;0.75;;;24.00;99.90;;;;;;4991434;28;20029;-75
2021/12/31 08:09:19;;;;;;;3.90;0.63;;;23.90;99.90;;;;;;4993802;28;20032;-72
2021/12/31 08:11:47;;;;;;;5.43;1.20;;;23.60;99.90;;;;;;4996099;28;20184;-72
2021/12/31 08:14:14;;;;;;;3.65;0.60;;;23.60;99.90;;;;;;4993274;28;20506;-73
2021/12/31 08:16:42;;;;;;;5.25;0.70;;;23.60;99.90;;;;;;4996041;28;20026;-74
2021/12/31 08:19:10;;;;;;;4.60;0.95;;;23.50;99.90;;;;;;4994085;28;20026;-73
2021/12/31 08:21:37;;;;;;;3.83;1.10;;;23.20;99.90;;;;;;4995796;28;20122;-72
2021/12/31 08:24:05;;;;;;;2.90;0.82;;;23.20;99.90;;;;;;4993936;28;20015;-74
2021/12/31 08:26:33;;;;;;;5.88;0.52;;;23.10;99.90;;;;;;4994061;28;20042;-75
2021/12/31 08:29:00;;;;;;;5.00;0.73;;;23.10;99.90;;;;;;4992126;28;20044;-74
2021/12/31 08:31:28;;;;;;;5.50;0.90;;;23.00;99.90;;;;;;4994402;28;20022;-74
2021/12/31 08:33:56;;;;;;;2.33;0.60;;;23.00;99.90;;;;;;4995488;28;20035;-73
2021/12/31 08:36:23;;;;;;;8.85;0.70;;;22.90;99.90;;;;;;4995619;28;20046;-73
2021/12/31 08:38:51;;;;;;;7.63;1.10;;;22.90;99.90;;;;;;4994179;28;20030;-73
2021/12/31 08:41:19;;;;;;;4.47;0.70;;;22.80;99.90;;;;;;4990425;28;20441;-75
2021/12/31 08:43:47;;;;;;;3.10;1.15;;;22.70;99.90;;;;;;4994247;28;20021;-76
2021/12/31 08:46:14;;;;;;;2.72;0.70;;;22.70;99.90;;;;;;4995047;28;20027;-75
2021/12/31 08:48:42;;;;;;;8.00;1.50;;;22.60;99.90;;;;;;4991791;28;20093;-75
2021/12/31 08:51:10;;;;;;;3.80;0.80;;;22.50;99.90;;;;;;4995087;28;20018;-74
2021/12/31 08:53:38;;;;;;;2.80;0.70;;;22.40;99.90;;;;;;4994876;28;20018;-74
2021/12/31 08:56:05;;;;;;;3.72;0.70;;;22.40;99.90;;;;;;4995040;28;20044;-71
2021/12/31 08:58:33;;;;;;;5.63;1.50;;;22.30;99.90;;;;;;4991074;28;20498;-72
2021/12/31 09:01:01;;;;;;;5.22;0.93;;;22.20;99.90;;;;;;4991835;28;20775;-76
2021/12/31 09:03:29;;;;;;;6.10;1.08;;;22.20;99.90;;;;;;4992493;28;20498;-74
2021/12/31 09:05:56;;;;;;;5.03;1.13;;;22.20;99.90;;;;;;4993174;28;20026;-72
2021/12/31 09:08:24;;;;;;;2.97;0.73;;;22.10;99.90;;;;;;4993664;28;20386;-74
2021/12/31 09:10:52;;;;;;;5.85;1.42;;;22.10;99.90;;;;;;4993116;28;20037;-76
2021/12/31 09:13:20;;;;;;;5.43;0.60;;;22.00;99.90;;;;;;4988736;28;20031;-71
2021/12/31 09:15:47;;;;;;;6.90;1.55;;;21.90;99.90;;;;;;4975051;28;20023;-73
2021/12/31 09:18:15;;;;;;;5.20;0.93;;;21.90;99.90;;;;;;4980513;28;20034;-74
2021/12/31 09:20:43;;;;;;;9.27;1.30;;;21.90;99.90;;;;;;4993228;28;20030;-69
2021/12/31 09:23:10;;;;;;;4.05;0.93;;;21.80;99.90;;;;;;4991202;28;20018;-70
2021/12/31 09:25:38;;;;;;;3.30;0.80;;;21.80;99.90;;;;;;4988414;28;20502;-74
2021/12/31 09:28:06;;;;;;;7.60;1.10;;;21.80;99.90;;;;;;4992217;28;20033;-75
2021/12/31 09:30:34;;;;;;;4.07;0.98;;;21.80;99.90;;;;;;4992165;28;20025;-71
2021/12/31 09:33:01;;;;;;;8.13;0.80;;;21.70;99.90;;;;;;4986044;28;20077;-72
2021/12/31 09:35:31;;;;;;;4.38;1.60;;;21.60;99.90;;;;;;4993013;28;20030;-71
2021/12/31 09:38:00;;;;;;;4.57;0.82;;;21.60;99.90;;;;;;4992663;28;20033;-71
2021/12/31 09:40:29;;;;;;;5.35;1.33;;;21.50;99.90;;;;;;4993770;28;20041;-73
2021/12/31 09:43:08;;;;;;;7.15;0.73;;;21.50;99.90;;;;;;4992893;28;20089;-74
2021/12/31 09:45:40;;;;;;;2.55;0.77;;;21.50;99.90;;;;;;4993055;28;20022;-73
2021/12/31 09:48:15;;;;;;;6.13;0.85;;;21.50;99.90;;;;;;4992810;28;20024;-72
2021/12/31 09:50:45;;;;;;;5.03;0.90;;;21.40;99.90;;;;;;4992689;28;20072;-74
2021/12/31 09:53:14;;;;;;;13.85;1.80;;;21.40;99.90;;;;;;4992552;28;20468;-73
2021/12/31 09:55:53;;;;;;;7.43;1.20;;;21.30;99.90;;;;;;4992552;28;20060;-69
2021/12/31 09:58:23;;;;;;;8.00;1.60;;;21.30;99.90;;;;;;4991969;28;20029;-75
2021/12/31 10:00:55;;;;;;;3.53;0.82;;;21.20;99.90;;;;;;4992734;28;20108;-74
2021/12/31 10:03:28;;;;;;;6.05;1.17;;;21.30;99.90;;;;;;4994838;28;20022;-74
2021/12/31 10:06:00;;;;;;;4.78;0.63;;;21.20;99.90;;;;;;4993832;28;20029;-73
2021/12/31 10:08:39;;;;;;;5.28;1.13;;;21.20;99.90;;;;;;4994297;28;20085;-74
2021/12/31 10:11:10;;;;;;;4.38;0.80;;;21.20;99.90;;;;;;4994297;28;20102;-73
2021/12/31 10:13:42;;;;;;;3.35;1.10;;;21.10;99.90;;;;;;4992206;28;20018;-73
2021/12/31 10:16:39;;;;;;;3.08;0.63;;;21.10;99.90;;;;;;4994145;28;20410;-70
2021/12/31 10:19:18;;;;;;;4.07;1.10;;;21.10;99.90;;;;;;4993988;28;20019;-73
2021/12/31 10:21:56;;;;;;;4.78;1.13;;;21.10;99.90;;;;;;4994236;28;20022;-74
2021/12/31 10:24:36;;;;;;;5.00;0.68;;;21.00;99.90;;;;;;4992594;28;20026;-73
2021/12/31 10:27:12;;;;;;;5.47;1.00;;;21.00;99.90;;;;;;4991735;28;20042;-75
2021/12/31 10:30:02;;;;;;;3.42;0.80;;;21.00;99.90;;;;;;4988997;28;20424;-72
2021/12/31 10:32:40;;;;;;;5.53;1.45;;;21.00;99.90;;;;;;4985387;28;20487;-70
2021/12/31 10:35:13;;;;;;;8.20;0.90;;;20.90;99.90;;;;;;4991067;28;20015;-73
2021/12/31 10:37:49;;;;;;;3.35;0.98;;;21.00;99.90;;;;;;4991682;28;20105;-70
2021/12/31 10:40:49;;;;;;;3.65;1.42;;;20.90;99.90;;;;;;4990416;28;20030;-70
2021/12/31 10:43:21;;;;;;;4.55;1.20;;;20.80;99.90;;;;;;4962257;28;20391;-70
2021/12/31 10:45:56;;;;;;;5.65;1.42;;;20.80;99.90;;;;;;4974501;28;20044;-71
2021/12/31 10:48:44;;;;;;;5.63;1.05;;;20.80;99.90;;;;;;4974600;28;20033;-72
2021/12/31 10:51:14;;;;;;;7.55;1.20;;;20.80;99.90;;;;;;4974735;28;20034;-70
2021/12/31 10:53:50;;;;;;;5.10;1.33;;;20.80;99.90;;;;;;4992424;28;20138;-69
2021/12/31 10:56:17;;;;;;;9.38;1.05;;;20.70;99.90;;;;;;4991080;28;20026;-72
2021/12/31 10:58:58;;;;;;;5.28;1.10;;;20.70;99.90;;;;;;4990978;28;20030;-70
2021/12/31 11:01:26;;;;;;;8.43;1.55;;;20.60;99.90;;;;;;4991314;28;20061;-69
2021/12/31 11:03:54;;;;;;;7.57;1.27;;;20.60;99.90;;;;;;4988323;28;20084;-68
2021/12/31 11:06:23;;;;;;;10.23;2.72;;;20.60;99.90;;;;;;4987763;28;20077;-70
2021/12/31 11:08:51;;;;;;;13.05;2.40;;;20.70;99.90;;;;;;4989717;28;20514;-71
2021/12/31 11:11:21;;;;;;;8.32;1.52;;;20.70;99.90;;;;;;4991045;28;20065;-68
2021/12/31 11:13:50;;;;;;;6.82;2.13;;;20.60;99.90;;;;;;4992504;28;20046;-72
2021/12/31 11:16:17;;;;;;;17.73;2.03;;;20.60;99.90;;;;;;4995076;28;20022;-80
2021/12/31 11:18:45;;;;;;;12.45;1.88;;;20.60;99.90;;;;;;4994655;28;20038;-79
2021/12/31 11:21:14;;;;;;;9.50;1.55;;;20.60;99.90;;;;;;4986353;28;20484;-78
2021/12/31 11:23:43;;;;;;;7.13;1.95;;;20.60;99.90;;;;;;4990332;28;20034;-70
2021/12/31 11:26:13;;;;;;;11.32;2.30;;;20.60;99.90;;;;;;4992879;28;20050;-78
2021/12/31 11:28:42;;;;;;;8.07;1.95;;;20.60;99.90;;;;;;4994369;28;20030;-73
2021/12/31 11:31:18;;;;;;;7.20;1.10;;;20.50;99.90;;;;;;4993138;28;20054;-76
2021/12/31 11:34:08;;;;;;;3.70;1.25;;;20.50;99.90;;;;;;4995091;28;20759;-70
2021/12/31 11:36:41;;;;;;;7.82;1.58;;;20.50;99.90;;;;;;5012425;28;20080;-77
2021/12/31 11:39:32;;;;;;;4.95;1.80;;;20.40;99.90;;;;;;5013048;28;20112;-76
2021/12/31 11:42:03;;;;;;;4.65;1.25;;;20.40;99.90;;;;;;5010378;28;20042;-78
2021/12/31 11:44:32;;;;;;;10.23;1.73;;;20.30;99.90;;;;;;5010855;28;20025;-77
2021/12/31 11:47:17;;;;;;;5.22;1.10;;;20.30;99.90;;;;;;5005948;28;20494;-77
2021/12/31 11:49:46;;;;;;;6.40;1.33;;;20.30;99.90;;;;;;5005056;28;20019;-78
2021/12/31 11:52:23;;;;;;;5.20;1.58;;;20.30;99.90;;;;;;5005768;28;20044;-77
2021/12/31 11:55:22;;;;;;;7.75;1.58;;;20.30;99.90;;;;;;5007808;28;20024;-79
2021/12/31 11:57:52;;;;;;;9.65;1.77;;;20.30;99.90;;;;;;5001045;28;20383;-78
2021/12/31 12:00:27;;;;;;;5.78;1.35;;;20.30;99.90;;;;;;5000406;28;20042;-77
2021/12/31 12:02:55;;;;;;;5.90;1.15;;;20.30;99.90;;;;;;5000485;28;20019;-77
2021/12/31 12:05:26;;;;;;;8.23;1.50;;;20.30;99.90;;;;;;4999886;28;20058;-78
2021/12/31 12:07:54;;;;;;;9.05;1.63;;;20.20;99.90;;;;;;5003687;28;20368;-76
2021/12/31 12:10:26;;;;;;;4.03;1.15;;;20.10;99.90;;;;;;4977314;28;20114;-70
2021/12/31 12:12:56;;;;;;;4.35;1.25;;;20.10;99.90;;;;;;4977866;28;20459;-71
2021/12/31 12:15:29;;;;;;;4.05;1.00;;;20.00;99.90;;;;;;4977690;28;20031;-71
2021/12/31 12:17:59;;;;;;;4.03;1.00;;;20.10;99.90;;;;;;4977861;28;20042;-69
2021/12/31 12:20:35;;;;;;;12.48;1.33;;;20.10;99.90;;;;;;4977570;28;20037;-70
2021/12/31 12:23:10;;;;;;;7.28;1.45;;;20.10;99.90;;;;;;4976157;28;20038;-69
2021/12/31 12:25:38;;;;;;;9.30;1.73;;;20.10;99.90;;;;;;4977006;28;20030;-70
2021/12/31 12:28:07;;;;;;;4.75;1.00;;;20.00;99.90;;;;;;4977381;28;20094;-69
2021/12/31 12:30:38;;;;;;;4.90;1.77;;;20.00;99.90;;;;;;4977093;28;20023;-71
2021/12/31 12:35:40;;;;;;;4.20;0.85;;;20.10;99.90;;;;;;4976993;28;20101;-69
2021/12/31 12:38:30;;;;;;;7.97;1.58;;;20.00;99.90;;;;;;4977006;28;20023;-69
2021/12/31 12:40:59;;;;;;;4.00;0.70;;;20.10;99.90;;;;;;4976950;28;20472;-69
2021/12/31 12:43:29;;;;;;;3.35;1.00;;;20.00;99.90;;;;;;4976901;28;20031;-70
2021/12/31 12:46:00;;;;;;;13.13;1.20;;;20.00;99.90;;;;;;4976735;28;20027;-69
2021/12/31 12:48:57;;;;;;;4.00;1.45;;;19.90;99.90;;;;;;4976918;28;20089;-68
2021/12/31 12:51:30;;;;;;;6.53;1.50;;;19.90;99.90;;;;;;4976287;28;20030;-69
2021/12/31 12:54:04;;;;;;;5.47;1.40;;;19.80;99.90;;;;;;4976328;28;20041;-70
2021/12/31 12:56:31;;;;;;;5.50;1.30;;;19.70;99.90;;;;;;4975461;28;20027;-69
2021/12/31 12:59:01;;;;;;;2.28;0.85;;;19.70;99.90;;;;;;4976777;28;20053;-69
2021/12/31 13:01:46;;;;;;;8.07;1.70;;;19.70;99.90;;;;;;4976676;28;20035;-69